createdAt,value
2022-12-23T00:00:12.404Z,7.03
2022-12-23T00:02:39.356Z,8.15
2022-12-23T00:05:06.998Z,9.63
2022-12-23T00:07:34.079Z,8.88
2022-12-23T00:10:00.907Z,8.32
2022-12-23T00:12:27.755Z,8.30
2022-12-23T00:15:07.587Z,7.95
2022-12-23T00:17:36.950Z,8.48
2022-12-23T00:20:05.719Z,9.88
2022-12-23T00:22:32.560Z,7.82
2022-12-23T00:25:18.124Z,7.30
2022-12-23T00:27:48.370Z,7.53
2022-12-23T00:30:16.127Z,10.55
2022-12-23T00:32:44.751Z,7.88
2022-12-23T00:35:11.672Z,6.95
2022-12-23T00:37:38.724Z,7.93
2022-12-23T00:40:07.059Z,8.55
2022-12-23T00:42:34.162Z,8.77
2022-12-23T00:45:01.015Z,6.97
2022-12-23T00:47:27.893Z,8.23
2022-12-23T00:49:54.784Z,7.33
2022-12-23T00:52:21.557Z,6.82
2022-12-23T00:54:48.497Z,7.18
2022-12-23T00:57:15.267Z,6.55
2022-12-23T00:59:42.110Z,7.05
2022-12-23T01:02:11.967Z,6.63
2022-12-23T01:04:39.168Z,6.63
2022-12-23T01:07:07.138Z,6.85
2022-12-23T01:09:34.861Z,7.57
2022-12-23T01:12:02.009Z,7.00
2022-12-23T01:14:29.085Z,7.13
2022-12-23T01:16:56.316Z,7.32
2022-12-23T01:19:23.147Z,7.75
2022-12-23T01:21:50.130Z,7.63
2022-12-23T01:24:17.546Z,7.88
2022-12-23T01:26:44.451Z,7.07
2022-12-23T01:29:11.540Z,9.88
2022-12-23T01:31:38.465Z,6.68
2022-12-23T01:34:05.576Z,5.85
2022-12-23T01:36:32.458Z,8.98
2022-12-23T01:38:59.302Z,7.37
2022-12-23T01:41:30.262Z,8.65
2022-12-23T01:43:57.102Z,7.85
2022-12-23T01:46:24.052Z,7.68
2022-12-23T01:48:53.178Z,9.88
2022-12-23T01:51:26.049Z,7.80
2022-12-23T01:53:56.889Z,8.48
2022-12-23T01:56:32.950Z,8.13
2022-12-23T01:59:07.807Z,9.10
2022-12-23T02:01:34.895Z,6.60
2022-12-23T02:04:06.763Z,8.13
2022-12-23T02:06:39.663Z,8.30
2022-12-23T02:09:14.803Z,9.00
2022-12-23T02:11:59.682Z,7.22
2022-12-23T02:14:53.031Z,9.38
2022-12-23T02:17:41.676Z,7.43
2022-12-23T02:20:33.390Z,8.88
2022-12-23T02:23:27.845Z,8.55
2022-12-23T02:26:16.514Z,6.38
2022-12-23T02:29:08.093Z,8.75
2022-12-23T02:31:40.860Z,7.10
2022-12-23T02:34:19.310Z,7.40
2022-12-23T02:37:14.627Z,8.38
2022-12-23T02:40:19.981Z,7.55
2022-12-23T02:42:59.277Z,7.20
2022-12-23T02:46:09.526Z,8.37
2022-12-23T02:48:48.656Z,6.05
2022-12-23T02:51:17.065Z,7.13
2022-12-23T02:53:52.997Z,7.45
2022-12-23T02:56:23.082Z,7.32
2022-12-23T02:58:55.971Z,5.50
2022-12-23T03:01:26.479Z,8.48
2022-12-23T03:03:53.421Z,21.95
2022-12-23T03:06:28.144Z,24.17
2022-12-23T03:08:57.674Z,24.45
2022-12-23T03:11:48.046Z,28.63
2022-12-23T03:14:27.497Z,32.80
2022-12-23T03:17:09.978Z,28.27
2022-12-23T03:19:42.517Z,31.85
2022-12-23T03:22:24.602Z,37.47
2022-12-23T03:25:18.660Z,40.20
2022-12-23T03:27:53.247Z,38.50
2022-12-23T03:30:22.976Z,32.25
2022-12-23T03:32:59.499Z,34.80
2022-12-23T03:35:31.897Z,39.35
2022-12-23T03:38:02.757Z,36.07
2022-12-23T03:40:39.397Z,39.35
2022-12-23T03:43:20.167Z,38.08
2022-12-23T03:45:58.375Z,40.95
2022-12-23T03:48:35.513Z,32.83
2022-12-23T03:51:10.619Z,27.13
2022-12-23T03:53:55.139Z,33.55
2022-12-23T03:56:28.449Z,38.47
2022-12-23T03:58:59.431Z,36.88
2022-12-23T04:01:35.541Z,43.55
2022-12-23T04:04:10.973Z,72.87
2022-12-23T04:06:46.958Z,62.15
2022-12-23T04:09:21.728Z,64.85
2022-12-23T04:11:49.421Z,38.88
2022-12-23T04:14:21.076Z,16.25
2022-12-23T04:16:50.571Z,13.73
2022-12-23T04:19:17.393Z,13.18
2022-12-23T04:21:44.350Z,12.93
2022-12-23T04:24:11.216Z,18.58
2022-12-23T04:26:37.993Z,14.95
2022-12-23T04:29:05.001Z,19.87
2022-12-23T04:31:32.342Z,18.52
2022-12-23T04:33:59.753Z,17.80
2022-12-23T04:36:27.620Z,15.85
2022-12-23T04:38:54.748Z,19.65
2022-12-23T04:41:21.611Z,17.03
2022-12-23T04:43:53.035Z,17.50
2022-12-23T04:46:20.974Z,19.08
2022-12-23T04:48:47.908Z,20.05
2022-12-23T04:51:14.689Z,20.77
2022-12-23T04:53:41.664Z,24.57
2022-12-23T04:56:08.453Z,29.63
2022-12-23T04:58:35.269Z,27.33
2022-12-23T05:01:06.595Z,29.27
2022-12-23T05:03:34.409Z,38.50
2022-12-23T05:06:01.447Z,34.17
2022-12-23T05:08:28.962Z,35.83
2022-12-23T05:10:56.201Z,38.63
2022-12-23T05:13:23.695Z,30.52
2022-12-23T05:15:54.291Z,30.90
2022-12-23T05:18:22.371Z,20.27
2022-12-23T05:20:50.898Z,18.70
2022-12-23T05:23:17.831Z,15.93
2022-12-23T05:25:51.161Z,17.15
2022-12-23T05:28:18.100Z,14.43
2022-12-23T05:30:44.874Z,12.30
2022-12-23T05:33:11.918Z,16.25
2022-12-23T05:35:38.699Z,12.90
2022-12-23T05:38:06.511Z,12.57
2022-12-23T05:40:34.051Z,13.45
2022-12-23T05:43:00.956Z,10.40
2022-12-23T05:45:27.965Z,9.25
2022-12-23T05:47:54.915Z,9.00
2022-12-23T05:50:21.827Z,12.50
2022-12-23T05:52:49.317Z,13.37
2022-12-23T05:55:16.393Z,8.65
2022-12-23T05:57:43.368Z,12.70
2022-12-23T06:00:10.814Z,10.73
2022-12-23T06:02:41.449Z,12.45
2022-12-23T06:05:09.203Z,12.30
2022-12-23T06:07:36.460Z,10.77
2022-12-23T06:10:09.106Z,16.33
2022-12-23T06:12:36.435Z,18.38
2022-12-23T06:15:03.856Z,19.58
2022-12-23T06:17:30.787Z,14.85
2022-12-23T06:19:57.587Z,14.95
2022-12-23T06:22:24.510Z,14.83
2022-12-23T06:24:51.413Z,14.30
2022-12-23T06:27:18.957Z,12.32
2022-12-23T06:29:45.850Z,13.32
2022-12-23T06:32:12.935Z,15.98
2022-12-23T06:34:39.877Z,14.63
2022-12-23T06:37:06.745Z,14.18
2022-12-23T06:39:33.848Z,13.68
2022-12-23T06:42:00.680Z,16.42
2022-12-23T06:44:27.600Z,13.40
2022-12-23T06:46:54.475Z,15.37
2022-12-23T06:49:21.273Z,14.23
2022-12-23T06:51:48.070Z,13.02
2022-12-23T06:54:14.976Z,14.63
2022-12-23T06:56:41.807Z,15.15
2022-12-23T06:59:08.781Z,14.40
2022-12-23T07:01:35.825Z,13.38
2022-12-23T07:04:02.905Z,19.75
2022-12-23T07:06:29.782Z,15.55
2022-12-23T07:08:56.594Z,18.88
2022-12-23T07:11:23.413Z,14.37
2022-12-23T07:13:50.800Z,13.57
2022-12-23T07:16:17.738Z,13.52
2022-12-23T07:18:44.603Z,14.25
2022-12-23T07:21:21.263Z,14.35
2022-12-23T07:23:53.431Z,10.80
2022-12-23T07:26:20.270Z,12.30
2022-12-23T07:28:47.094Z,11.15
2022-12-23T07:31:14.145Z,13.57
2022-12-23T07:33:41.250Z,15.43
2022-12-23T07:36:08.362Z,10.57
2022-12-23T07:38:35.133Z,11.82
2022-12-23T07:41:01.945Z,11.60
2022-12-23T07:43:28.731Z,11.93
2022-12-23T07:45:59.869Z,12.15
2022-12-23T07:48:28.320Z,12.20
2022-12-23T07:51:01.143Z,15.05
2022-12-23T07:53:28.187Z,14.93
2022-12-23T07:55:56.804Z,13.02
2022-12-23T07:58:24.703Z,14.15
2022-12-23T08:00:59.253Z,13.00
2022-12-23T08:03:26.241Z,13.18
2022-12-23T08:06:01.162Z,13.93
2022-12-23T08:08:28.711Z,14.75
2022-12-23T08:11:00.829Z,12.98
2022-12-23T08:13:28.573Z,13.70
2022-12-23T08:16:00.186Z,16.65
2022-12-23T08:18:29.298Z,17.08
2022-12-23T08:20:57.968Z,17.20
2022-12-23T08:23:25.840Z,17.55
2022-12-23T08:26:20.425Z,17.37
2022-12-23T08:28:48.480Z,19.02
2022-12-23T08:31:24.336Z,17.88
2022-12-23T08:33:57.259Z,15.15
2022-12-23T08:36:27.295Z,17.85
2022-12-23T08:38:56.137Z,19.70
2022-12-23T08:41:29.245Z,19.10
2022-12-23T08:43:56.809Z,20.70
2022-12-23T08:46:24.262Z,19.30
2022-12-23T08:48:51.131Z,19.05
2022-12-23T08:51:20.067Z,19.37
2022-12-23T08:53:47.585Z,19.30
2022-12-23T08:56:20.568Z,17.15
2022-12-23T08:58:52.973Z,17.45
2022-12-23T09:01:23.035Z,18.80
2022-12-23T09:03:51.114Z,20.77
2022-12-23T09:06:26.469Z,19.90
2022-12-23T09:08:55.686Z,18.48
2022-12-23T09:11:25.201Z,16.65
2022-12-23T09:13:52.215Z,18.42
2022-12-23T09:16:19.689Z,16.80
2022-12-23T09:18:46.559Z,17.70
2022-12-23T09:21:21.336Z,18.05
2022-12-23T09:23:48.729Z,16.73
2022-12-23T09:26:28.208Z,19.42
2022-12-23T09:28:55.929Z,19.90
2022-12-23T09:31:23.865Z,19.65
2022-12-23T09:33:52.718Z,21.63
2022-12-23T09:36:23.581Z,20.88
2022-12-23T09:38:55.651Z,17.40
2022-12-23T09:41:40.756Z,19.43
2022-12-23T09:44:22.071Z,17.95
2022-12-23T09:46:53.983Z,19.58
2022-12-23T09:49:22.772Z,19.10
2022-12-23T09:51:52.459Z,19.05
2022-12-23T09:54:27.585Z,19.33
2022-12-23T09:57:17.270Z,18.20
2022-12-23T10:00:14.224Z,18.23
2022-12-23T10:02:56.308Z,18.80
2022-12-23T10:05:32.775Z,20.38
2022-12-23T10:08:07.781Z,21.17
2022-12-23T10:10:43.966Z,20.52
2022-12-23T10:13:33.549Z,22.85
2022-12-23T10:16:22.964Z,19.95
2022-12-23T10:18:58.916Z,20.73
2022-12-23T10:21:46.727Z,20.47
2022-12-23T10:24:23.477Z,20.33
2022-12-23T10:27:12.984Z,20.02
2022-12-23T10:29:42.295Z,24.17
2022-12-23T10:32:24.966Z,21.95
2022-12-23T10:35:15.702Z,20.57
2022-12-23T10:37:57.681Z,21.88
2022-12-23T10:40:46.259Z,21.42
2022-12-23T10:43:31.837Z,19.30
2022-12-23T10:46:08.767Z,18.90
2022-12-23T10:48:46.995Z,20.03
2022-12-23T10:51:52.300Z,18.00
2022-12-23T10:54:26.695Z,19.30
2022-12-23T10:56:53.908Z,19.17
2022-12-23T10:59:29.576Z,20.90
2022-12-23T11:02:29.282Z,19.80
2022-12-23T11:04:56.427Z,19.15
2022-12-23T11:07:44.250Z,21.55
2022-12-23T11:10:26.170Z,21.42
2022-12-23T11:12:53.650Z,20.08
2022-12-23T11:15:39.096Z,18.27
2022-12-23T11:18:17.816Z,18.63
2022-12-23T11:21:00.864Z,20.48
2022-12-23T11:23:33.880Z,16.75
2022-12-23T11:26:11.606Z,19.25
2022-12-23T11:28:50.392Z,18.93
2022-12-23T11:31:29.260Z,18.63
2022-12-23T11:33:58.338Z,17.35
2022-12-23T11:36:27.702Z,16.30
2022-12-23T11:38:58.395Z,21.10
2022-12-23T11:41:36.187Z,20.10
2022-12-23T11:44:34.133Z,17.35
2022-12-23T11:47:23.748Z,16.95
2022-12-23T11:50:02.237Z,18.52
2022-12-23T11:52:31.912Z,19.60
2022-12-23T11:55:01.981Z,16.43
2022-12-23T11:57:43.229Z,19.00
2022-12-23T12:00:28.805Z,17.15
2022-12-23T12:02:59.287Z,18.02
2022-12-23T12:05:33.666Z,19.02
2022-12-23T12:08:03.645Z,18.63
2022-12-23T12:10:33.462Z,21.80
2022-12-23T12:13:05.140Z,20.02
2022-12-23T12:15:43.623Z,19.90
2022-12-23T12:18:15.898Z,20.05
2022-12-23T12:20:48.568Z,20.57
2022-12-23T12:23:21.000Z,20.58
2022-12-23T12:25:50.272Z,18.02
2022-12-23T12:28:28.430Z,21.98
2022-12-23T12:31:05.497Z,20.25
2022-12-23T12:33:41.237Z,20.20
2022-12-23T12:36:30.526Z,18.48
2022-12-23T12:38:59.073Z,20.48
2022-12-23T12:41:32.664Z,20.85
2022-12-23T12:44:03.761Z,17.48
2022-12-23T12:46:41.084Z,20.97
2022-12-23T12:49:36.414Z,17.85
2022-12-23T12:52:11.677Z,20.20
2022-12-23T12:54:56.006Z,18.73
2022-12-23T12:57:24.805Z,21.08
2022-12-23T13:00:01.643Z,19.03
2022-12-23T13:03:01.599Z,22.88
2022-12-23T13:05:40.609Z,20.52
2022-12-23T13:08:26.655Z,19.75
2022-12-23T13:11:28.170Z,19.88
2022-12-23T13:14:28.373Z,18.60
2022-12-23T13:17:13.736Z,18.20
2022-12-23T13:20:05.374Z,20.77
2022-12-23T13:22:34.318Z,19.65
2022-12-23T13:25:16.251Z,17.05
2022-12-23T13:27:45.593Z,14.73
2022-12-23T13:30:17.210Z,15.20
2022-12-23T13:33:02.322Z,9.68
2022-12-23T13:35:55.504Z,4.15
2022-12-23T13:38:56.757Z,4.22
2022-12-23T13:41:27.558Z,1.83
2022-12-23T13:44:08.180Z,1.95
2022-12-23T13:46:56.065Z,2.35
2022-12-23T13:49:50.264Z,1.75
2022-12-23T13:52:41.697Z,2.05
2022-12-23T13:55:30.693Z,1.77
2022-12-23T13:58:28.278Z,1.67
2022-12-23T14:01:09.983Z,2.78
2022-12-23T14:03:39.114Z,5.07
2022-12-23T14:06:23.697Z,12.32
2022-12-23T14:08:55.027Z,15.53
2022-12-23T14:11:29.497Z,19.08
2022-12-23T14:13:56.496Z,19.38
2022-12-23T14:16:40.883Z,19.63
2022-12-23T14:19:27.092Z,20.88
2022-12-23T14:21:56.654Z,19.10
2022-12-23T14:25:01.661Z,18.42
2022-12-23T14:27:47.032Z,20.73
2022-12-23T14:30:18.011Z,21.17
2022-12-23T14:32:49.263Z,21.77
2022-12-23T14:35:24.203Z,17.50
2022-12-23T14:38:31.374Z,18.25
2022-12-23T14:40:59.247Z,17.20
2022-12-23T14:43:27.750Z,18.63
2022-12-23T14:45:56.584Z,19.67
2022-12-23T14:48:42.114Z,19.23
2022-12-23T14:51:09.150Z,19.35
2022-12-23T14:53:58.855Z,20.60
2022-12-23T14:56:51.221Z,20.00
2022-12-23T14:59:30.384Z,21.40
2022-12-23T15:02:21.058Z,19.37
2022-12-23T15:04:53.081Z,19.88
2022-12-23T15:07:49.494Z,18.88
2022-12-23T15:10:18.317Z,18.13
2022-12-23T15:12:51.790Z,20.30
2022-12-23T15:15:20.037Z,16.30
2022-12-23T15:17:47.414Z,18.30
2022-12-23T15:20:24.172Z,18.27
2022-12-23T15:22:51.484Z,17.63
2022-12-23T15:25:21.369Z,19.20
2022-12-23T15:27:48.646Z,19.17
2022-12-23T15:30:16.667Z,17.98
2022-12-23T15:32:46.688Z,18.27
2022-12-23T15:35:25.096Z,17.83
2022-12-23T15:37:52.633Z,17.85
2022-12-23T15:40:38.857Z,17.67
2022-12-23T15:43:20.230Z,19.67
2022-12-23T15:45:47.059Z,19.10
2022-12-23T15:48:29.701Z,19.63
2022-12-23T15:51:06.587Z,20.33
2022-12-23T15:53:38.928Z,20.57
2022-12-23T15:56:10.117Z,19.45
2022-12-23T15:58:40.740Z,18.52
2022-12-23T16:01:15.248Z,20.67
2022-12-23T16:03:48.768Z,22.90
2022-12-23T16:06:21.663Z,18.80
2022-12-23T16:09:04.264Z,20.35
2022-12-23T16:11:51.974Z,21.45
2022-12-23T16:14:23.402Z,19.00
2022-12-23T16:16:51.586Z,20.77
2022-12-23T16:19:38.499Z,21.60
2022-12-23T16:22:16.034Z,22.20
2022-12-23T16:24:53.627Z,20.05
2022-12-23T16:27:32.216Z,21.02
2022-12-23T16:30:02.473Z,20.48
2022-12-23T16:32:29.442Z,20.40
2022-12-23T16:34:56.256Z,21.13
2022-12-23T16:37:23.099Z,20.05
2022-12-23T16:39:49.895Z,18.58
2022-12-23T16:42:18.910Z,21.85
2022-12-23T16:44:45.709Z,21.73
2022-12-23T16:47:17.457Z,19.95
2022-12-23T16:49:44.409Z,20.17
2022-12-23T16:52:13.251Z,22.65
2022-12-23T16:54:40.072Z,19.23
2022-12-23T16:57:06.869Z,20.73
2022-12-23T16:59:33.752Z,21.38
2022-12-23T17:02:03.667Z,21.15
2022-12-23T17:04:30.873Z,21.63
2022-12-23T17:06:57.836Z,19.73
2022-12-23T17:09:24.583Z,19.03
2022-12-23T17:11:53.832Z,21.02
2022-12-23T17:14:25.313Z,22.63
2022-12-23T17:16:52.409Z,23.50
2022-12-23T17:19:28.407Z,23.92
2022-12-23T17:22:01.760Z,23.87
2022-12-23T17:24:28.582Z,23.50
2022-12-23T17:26:56.467Z,22.00
2022-12-23T17:29:23.699Z,23.58
2022-12-23T17:31:51.223Z,24.77
2022-12-23T17:34:22.326Z,23.67
2022-12-23T17:36:50.640Z,21.77
2022-12-23T17:39:19.045Z,23.60
2022-12-23T17:41:46.062Z,25.60
2022-12-23T17:44:17.739Z,23.77
2022-12-23T17:46:47.486Z,22.63
2022-12-23T17:49:14.261Z,20.90
2022-12-23T17:51:41.951Z,20.00
2022-12-23T17:54:21.813Z,19.35
2022-12-23T17:56:48.888Z,20.95
2022-12-23T17:59:16.213Z,21.53
2022-12-23T18:01:43.415Z,20.67
2022-12-23T18:04:10.177Z,18.73
2022-12-23T18:06:36.942Z,17.90
2022-12-23T18:09:04.533Z,17.33
2022-12-23T18:11:40.944Z,16.93
2022-12-23T18:14:17.610Z,21.38
2022-12-23T18:16:44.532Z,19.88
2022-12-23T18:19:20.960Z,20.23
2022-12-23T18:21:49.992Z,18.38
2022-12-23T18:24:17.383Z,17.80
2022-12-23T18:26:45.098Z,19.20
2022-12-23T18:29:11.886Z,18.35
2022-12-23T18:31:50.635Z,18.80
2022-12-23T18:34:19.436Z,20.63
2022-12-23T18:36:47.241Z,20.33
2022-12-23T18:39:17.423Z,19.23
2022-12-23T18:41:45.127Z,18.30
2022-12-23T18:44:21.193Z,19.63
2022-12-23T18:46:49.127Z,18.38
2022-12-23T18:49:17.541Z,18.63
2022-12-23T18:51:45.907Z,16.95
2022-12-23T18:54:14.823Z,18.50
2022-12-23T18:56:43.125Z,19.20
2022-12-23T18:59:21.412Z,18.60
2022-12-23T19:01:52.312Z,19.20
2022-12-23T19:04:19.776Z,19.33
2022-12-23T19:06:47.665Z,18.48
2022-12-23T19:09:18.154Z,22.13
2022-12-23T19:11:50.868Z,21.20
2022-12-23T19:14:18.806Z,20.17
2022-12-23T19:16:51.652Z,21.98
2022-12-23T19:19:21.176Z,20.63
2022-12-23T19:21:48.445Z,20.35
2022-12-23T19:24:16.441Z,22.10
2022-12-23T19:26:43.863Z,21.03
2022-12-23T19:29:12.882Z,23.52
2022-12-23T19:31:45.977Z,22.30
2022-12-23T19:34:15.379Z,23.02
2022-12-23T19:36:43.051Z,23.83
2022-12-23T19:39:12.226Z,23.23
2022-12-23T19:41:39.133Z,22.80
2022-12-23T19:44:06.046Z,26.73
2022-12-23T19:46:33.315Z,25.10
2022-12-23T19:49:00.260Z,50.22
2022-12-23T19:51:27.156Z,28.40
2022-12-23T19:53:54.029Z,27.88
2022-12-23T19:56:21.503Z,22.85
2022-12-23T19:58:49.848Z,20.98
2022-12-23T20:01:19.904Z,22.17
2022-12-23T20:03:48.963Z,21.60
2022-12-23T20:06:20.086Z,19.25
2022-12-23T20:08:47.420Z,18.02
2022-12-23T20:11:17.920Z,18.60
2022-12-23T20:13:46.016Z,17.08
2022-12-23T20:16:13.649Z,16.93
2022-12-23T20:18:40.646Z,17.90
2022-12-23T20:21:07.550Z,15.23
2022-12-23T20:23:35.282Z,15.55
2022-12-23T20:26:02.699Z,15.13
2022-12-23T20:28:29.769Z,13.73
2022-12-23T20:31:17.221Z,16.50
2022-12-23T20:33:47.585Z,18.42
2022-12-23T20:36:18.051Z,17.25
2022-12-23T20:38:46.881Z,19.23
2022-12-23T20:41:16.667Z,18.00
2022-12-23T20:43:56.925Z,15.70
2022-12-23T20:46:31.782Z,18.98
2022-12-23T20:48:58.695Z,19.13
2022-12-23T20:51:25.917Z,20.50
2022-12-23T20:53:54.877Z,18.07
2022-12-23T20:56:22.330Z,17.23
2022-12-23T20:58:49.247Z,15.25
2022-12-23T21:01:16.205Z,15.13
2022-12-23T21:03:43.589Z,17.52
2022-12-23T21:06:10.657Z,15.53
2022-12-23T21:08:38.236Z,15.18
2022-12-23T21:11:06.543Z,14.63
2022-12-23T21:13:33.432Z,14.68
2022-12-23T21:16:02.176Z,13.75
2022-12-23T21:18:29.042Z,13.67
2022-12-23T21:21:01.243Z,15.45
2022-12-23T21:23:28.134Z,16.50
2022-12-23T21:26:08.960Z,15.95
2022-12-23T21:28:36.596Z,16.20
2022-12-23T21:31:04.764Z,14.77
2022-12-23T21:33:31.480Z,15.88
2022-12-23T21:35:58.348Z,15.98
2022-12-23T21:38:25.121Z,14.63
2022-12-23T21:40:58.665Z,17.40
2022-12-23T21:43:25.431Z,18.33
2022-12-23T21:46:01.279Z,18.15
2022-12-23T21:48:31.223Z,18.77
2022-12-23T21:51:06.547Z,20.52
2022-12-23T21:53:35.294Z,20.67
2022-12-23T21:56:06.977Z,18.90
2022-12-23T21:58:34.514Z,18.75
2022-12-23T22:01:23.872Z,20.25
2022-12-23T22:03:51.798Z,20.80
2022-12-23T22:06:21.708Z,19.60
2022-12-23T22:08:50.169Z,18.53
2022-12-23T22:11:20.961Z,20.58
2022-12-23T22:13:48.417Z,19.83
2022-12-23T22:16:18.950Z,18.00
2022-12-23T22:18:46.749Z,18.60
2022-12-23T22:21:19.190Z,17.90
2022-12-23T22:23:46.314Z,18.08
2022-12-23T22:26:20.228Z,18.83
2022-12-23T22:28:50.923Z,19.85
2022-12-23T22:31:30.348Z,19.15
2022-12-23T22:33:57.550Z,18.47
2022-12-23T22:36:24.471Z,19.98
2022-12-23T22:38:56.320Z,19.17
2022-12-23T22:41:24.416Z,18.90
2022-12-23T22:43:51.634Z,20.13
2022-12-23T22:46:18.956Z,18.23
2022-12-23T22:48:46.270Z,18.67
2022-12-23T22:51:19.850Z,18.05
2022-12-23T22:53:47.351Z,18.25
2022-12-23T22:56:16.169Z,21.75
2022-12-23T22:58:43.201Z,18.33
2022-12-23T23:01:25.667Z,20.48
2022-12-23T23:03:55.122Z,18.80
2022-12-23T23:06:26.566Z,21.05
2022-12-23T23:08:54.424Z,17.92
2022-12-23T23:11:21.458Z,17.83
2022-12-23T23:13:48.478Z,19.88
2022-12-23T23:16:15.357Z,17.63
2022-12-23T23:18:42.126Z,18.55
2022-12-23T23:21:11.564Z,19.80
2022-12-23T23:23:38.610Z,20.53
2022-12-23T23:26:05.574Z,21.05
2022-12-23T23:28:32.417Z,19.55
2022-12-23T23:31:32.001Z,19.73
2022-12-23T23:33:46.316Z,18.33
2022-12-23T23:36:13.173Z,18.30
2022-12-23T23:38:40.045Z,20.73
2022-12-23T23:41:06.898Z,20.67
2022-12-23T23:43:33.722Z,22.15
2022-12-23T23:46:00.592Z,21.20
2022-12-23T23:48:27.541Z,19.47
2022-12-23T23:51:03.068Z,20.83
2022-12-23T23:53:29.888Z,17.38
2022-12-23T23:56:05.119Z,17.90
2022-12-23T23:58:32.300Z,16.83
